Time;durP1;ratioP1;P1;durP2;ratioP2;P2;SDS_P1;SDS_P2;PMS_P1;PMS_P2;Temp;Humidity;BMP_temperature;BMP_pressure;BME280_temperature;BME280_humidity;BME280_pressure;Samples;Min_cycle;Max_cycle;Signal;HPM_P1;HPM_P2
2021/03/11 00:00:40;;;;;;;26.65;8.68;;;6.00;99.90;;;;;;4931190;29;20035;-76
2021/03/11 00:03:10;;;;;;;20.50;7.57;;;5.90;99.90;;;;;;4931019;29;20028;-75
2021/03/11 00:05:36;;;;;;;23.83;6.40;;;5.90;99.90;;;;;;4931790;29;20040;-77
2021/03/11 00:11:03;;;;;;;14.48;6.70;;;5.90;99.90;;;;;;5143455;27;20362;-76
2021/03/11 00:13:28;;;;;;;20.88;7.35;;;5.80;99.90;;;;;;5122829;28;20032;-78
2021/03/11 00:15:54;;;;;;;16.02;6.45;;;5.80;99.90;;;;;;5121128;28;20039;-74
2021/03/11 00:18:21;;;;;;;18.92;8.73;;;5.80;99.90;;;;;;5122580;28;20030;-74
2021/03/11 00:20:46;;;;;;;16.60;7.32;;;5.80;99.90;;;;;;5121900;28;20054;-76
2021/03/11 00:23:13;;;;;;;30.70;8.82;;;5.80;99.90;;;;;;5120964;28;20032;-75
2021/03/11 00:25:39;;;;;;;23.42;8.55;;;5.80;99.90;;;;;;5121202;28;20020;-77
2021/03/11 00:28:05;;;;;;;14.45;6.18;;;5.70;99.90;;;;;;5122033;28;20039;-74
2021/03/11 00:30:31;;;;;;;24.73;9.30;;;5.70;99.90;;;;;;5120742;28;20129;-75
2021/03/11 00:32:57;;;;;;;23.27;7.95;;;5.70;99.90;;;;;;5122046;28;20016;-73
2021/03/11 00:35:23;;;;;;;14.63;8.07;;;5.70;99.90;;;;;;5120673;28;20077;-74
2021/03/11 00:37:50;;;;;;;15.93;6.43;;;5.70;99.90;;;;;;5122189;28;20024;-76
2021/03/11 00:40:18;;;;;;;16.88;5.68;;;5.70;99.90;;;;;;5122250;28;20109;-76
2021/03/11 00:42:44;;;;;;;19.70;7.40;;;5.70;99.90;;;;;;5122104;28;20020;-76
2021/03/11 00:45:11;;;;;;;18.60;8.30;;;5.70;99.90;;;;;;5120922;28;20031;-75
2021/03/11 00:47:39;;;;;;;19.98;7.35;;;5.70;99.90;;;;;;5122079;28;20435;-74
2021/03/11 00:50:11;;;;;;;14.35;5.50;;;5.70;99.90;;;;;;5120566;28;20039;-74
2021/03/11 00:52:37;;;;;;;12.40;4.72;;;5.60;99.90;;;;;;5122254;28;20023;-74
2021/03/11 00:55:10;;;;;;;12.23;6.10;;;5.70;99.90;;;;;;5120735;28;20421;-76
2021/03/11 00:57:36;;;;;;;17.60;8.20;;;5.60;99.90;;;;;;5122001;28;20032;-77
2021/03/11 01:00:06;;;;;;;12.02;6.20;;;5.60;99.90;;;;;;5121886;28;20039;-74
2021/03/11 01:02:32;;;;;;;17.38;7.65;;;5.60;99.90;;;;;;5121694;28;20028;-75
2021/03/11 01:04:57;;;;;;;12.20;5.85;;;5.60;99.90;;;;;;5121659;28;20077;-76
2021/03/11 01:07:23;;;;;;;15.15;6.07;;;5.60;99.90;;;;;;5105309;28;20020;-74
2021/03/11 01:09:49;;;;;;;23.92;7.70;;;5.60;99.90;;;;;;5100794;28;20052;-78
2021/03/11 01:12:14;;;;;;;18.95;7.43;;;5.60;99.90;;;;;;5099916;28;20039;-77
2021/03/11 01:14:41;;;;;;;19.38;8.73;;;5.60;99.90;;;;;;5099909;28;20032;-77
2021/03/11 01:17:08;;;;;;;17.92;7.03;;;5.60;99.90;;;;;;5099924;28;20020;-79
2021/03/11 01:19:35;;;;;;;18.60;6.55;;;5.60;99.90;;;;;;5101331;28;20035;-78
2021/03/11 01:22:01;;;;;;;11.15;6.07;;;5.60;99.90;;;;;;5089877;28;20071;-75
2021/03/11 01:24:26;;;;;;;17.60;6.80;;;5.60;99.90;;;;;;5086967;28;20024;-76
2021/03/11 01:26:52;;;;;;;17.85;8.10;;;5.60;99.90;;;;;;5087467;28;20070;-76
2021/03/11 01:29:18;;;;;;;17.80;7.63;;;5.60;99.90;;;;;;5085786;28;20040;-75
2021/03/11 01:31:43;;;;;;;28.60;8.57;;;5.60;99.90;;;;;;5087328;28;20088;-72
2021/03/11 01:34:09;;;;;;;13.75;7.10;;;5.60;99.90;;;;;;5086992;28;20114;-78
2021/03/11 01:36:35;;;;;;;20.05;9.13;;;5.60;99.90;;;;;;5086955;28;20067;-74
2021/03/11 01:39:00;;;;;;;16.73;5.88;;;5.60;99.90;;;;;;5086093;28;20021;-76
2021/03/11 01:41:26;;;;;;;10.70;5.13;;;5.60;99.90;;;;;;5085267;28;20020;-76
2021/03/11 01:43:55;;;;;;;18.17;7.35;;;5.50;99.90;;;;;;5085864;28;20024;-76
2021/03/11 01:46:23;;;;;;;19.20;5.07;;;5.60;99.90;;;;;;5084979;28;20025;-75
2021/03/11 01:48:49;;;;;;;23.30;8.52;;;5.60;99.90;;;;;;5086421;28;20052;-77
2021/03/11 01:51:15;;;;;;;22.25;8.75;;;5.60;99.90;;;;;;5085271;28;20025;-77
2021/03/11 01:53:41;;;;;;;25.45;8.63;;;5.60;99.90;;;;;;5085808;28;20058;-79
2021/03/11 01:56:07;;;;;;;19.42;8.23;;;5.60;99.90;;;;;;5087117;28;20024;-80
2021/03/11 01:58:33;;;;;;;24.23;10.30;;;5.60;99.90;;;;;;5084846;28;20375;-78
2021/03/11 02:00:58;;;;;;;16.40;7.40;;;5.60;99.90;;;;;;5084451;28;20043;-80
2021/03/11 02:03:24;;;;;;;21.83;8.73;;;5.60;99.90;;;;;;5085537;28;20059;-77
2021/03/11 02:05:50;;;;;;;23.33;9.27;;;5.60;99.90;;;;;;5086194;28;20397;-77
2021/03/11 02:08:16;;;;;;;18.45;8.88;;;5.60;99.90;;;;;;5085785;28;20103;-80
2021/03/11 02:10:42;;;;;;;20.63;8.27;;;5.60;99.90;;;;;;5086412;28;20056;-81
2021/03/11 02:13:27;;;;;;;31.90;10.18;;;5.60;99.90;;;;;;5085542;28;20032;-76
2021/03/11 02:16:03;;;;;;;19.40;8.63;;;5.60;99.90;;;;;;5086667;28;20051;-80
2021/03/11 02:18:43;;;;;;;25.45;10.98;;;5.60;99.90;;;;;;5086920;28;20031;-78
2021/03/11 02:21:25;;;;;;;21.92;7.22;;;5.60;99.90;;;;;;5085372;28;20033;-80
2021/03/11 02:24:34;;;;;;;20.00;9.02;;;5.60;99.90;;;;;;5084806;28;20032;-78
2021/03/11 02:27:22;;;;;;;15.50;7.72;;;5.70;99.90;;;;;;5085973;28;20059;-79
2021/03/11 02:29:50;;;;;;;19.02;7.95;;;5.60;99.90;;;;;;5084531;28;20050;-80
2021/03/11 02:32:17;;;;;;;25.50;10.32;;;5.60;99.90;;;;;;5084999;28;20116;-77
2021/03/11 02:34:50;;;;;;;15.98;7.40;;;5.70;99.90;;;;;;5085712;28;20024;-77
2021/03/11 02:37:32;;;;;;;26.52;10.93;;;5.60;99.90;;;;;;5085961;28;20016;-82
2021/03/11 02:40:06;;;;;;;22.80;9.68;;;5.70;99.90;;;;;;5086093;28;20052;-80
2021/03/11 02:42:34;;;;;;;18.02;7.63;;;5.70;99.90;;;;;;5085149;28;20030;-79
2021/03/11 02:45:02;;;;;;;17.00;8.35;;;5.70;99.90;;;;;;5084860;28;20427;-79
2021/03/11 02:47:29;;;;;;;25.48;10.10;;;5.70;99.90;;;;;;5084672;28;20037;-78
2021/03/11 02:49:57;;;;;;;17.58;7.78;;;5.70;99.90;;;;;;5084508;28;20063;-79
2021/03/11 02:52:24;;;;;;;20.58;10.45;;;5.70;99.90;;;;;;5084410;28;20078;-79
2021/03/11 02:54:50;;;;;;;16.67;7.32;;;5.70;99.90;;;;;;5084520;28;20050;-76
2021/03/11 02:57:18;;;;;;;20.15;8.13;;;5.60;99.90;;;;;;5085821;28;20032;-80
2021/03/11 02:59:46;;;;;;;15.27;6.70;;;5.60;99.90;;;;;;5084635;28;20051;-76
2021/03/11 03:02:14;;;;;;;21.55;8.02;;;5.70;99.90;;;;;;5085501;28;20028;-80
2021/03/11 03:04:43;;;;;;;19.42;8.52;;;5.70;99.90;;;;;;5085973;28;20036;-82
2021/03/11 03:07:13;;;;;;;13.45;6.63;;;5.70;99.90;;;;;;5085811;28;20067;-79
2021/03/11 03:09:40;;;;;;;15.85;8.20;;;5.70;99.90;;;;;;5084014;28;20053;-83
2021/03/11 03:12:07;;;;;;;14.63;6.53;;;5.70;99.90;;;;;;5085651;28;20036;-79
2021/03/11 03:14:36;;;;;;;16.55;6.95;;;5.70;99.90;;;;;;5085856;28;20033;-79
2021/03/11 03:17:02;;;;;;;19.88;9.32;;;5.70;99.90;;;;;;5085226;28;20032;-73
2021/03/11 03:19:29;;;;;;;23.70;9.35;;;5.70;99.90;;;;;;5085587;28;20036;-82
2021/03/11 03:21:55;;;;;;;19.83;7.95;;;5.70;99.90;;;;;;5085161;28;20038;-81
2021/03/11 03:24:21;;;;;;;20.13;7.88;;;5.70;99.90;;;;;;5083702;28;20060;-81
2021/03/11 03:26:47;;;;;;;19.60;8.20;;;5.70;99.90;;;;;;5083063;28;20033;-77
2021/03/11 03:29:13;;;;;;;24.35;8.95;;;5.70;99.90;;;;;;5082693;28;20047;-83
2021/03/11 03:31:40;;;;;;;13.85;7.05;;;5.70;99.90;;;;;;5083850;28;20031;-79
2021/03/11 03:34:06;;;;;;;21.60;9.20;;;5.80;99.90;;;;;;5083397;28;20028;-80
2021/03/11 03:36:32;;;;;;;16.55;8.30;;;5.80;99.90;;;;;;5085427;28;20555;-84
2021/03/11 03:38:57;;;;;;;20.67;7.95;;;5.70;99.90;;;;;;5083325;28;20389;-81
2021/03/11 03:41:26;;;;;;;16.65;7.65;;;5.70;99.90;;;;;;5083634;28;20036;-84
2021/03/11 03:43:51;;;;;;;26.60;8.50;;;5.80;99.90;;;;;;5084100;28;20035;-79
2021/03/11 03:46:22;;;;;;;14.90;6.78;;;5.70;99.90;;;;;;5083177;28;20021;-79
2021/03/11 03:48:59;;;;;;;12.73;5.75;;;5.80;99.90;;;;;;5083477;28;20040;-79
2021/03/11 03:51:27;;;;;;;20.20;8.20;;;5.80;99.90;;;;;;5084793;28;20032;-78
2021/03/11 03:53:59;;;;;;;16.15;8.55;;;5.80;99.90;;;;;;5084866;28;20024;-80
2021/03/11 03:56:34;;;;;;;19.67;8.75;;;5.80;99.90;;;;;;5084676;28;20033;-79
2021/03/11 03:59:06;;;;;;;17.42;7.50;;;5.80;99.90;;;;;;5082982;28;20502;-78
2021/03/11 04:01:36;;;;;;;17.38;6.97;;;5.80;99.90;;;;;;5085019;28;20043;-78
2021/03/11 04:04:05;;;;;;;16.67;8.32;;;5.80;99.90;;;;;;5082055;28;20033;-80
2021/03/11 04:06:32;;;;;;;14.05;7.55;;;5.80;99.90;;;;;;5082961;28;20394;-80
2021/03/11 04:09:01;;;;;;;17.77;6.88;;;5.80;99.90;;;;;;5082574;28;20052;-82
2021/03/11 04:11:27;;;;;;;16.15;7.43;;;5.90;99.90;;;;;;5083202;28;20032;-79
2021/03/11 04:13:54;;;;;;;19.52;7.53;;;5.90;99.90;;;;;;5083213;28;20035;-77
2021/03/11 04:16:22;;;;;;;16.58;6.30;;;5.90;99.90;;;;;;5083162;28;20028;-80
2021/03/11 04:18:51;;;;;;;42.78;7.95;;;5.90;99.90;;;;;;5084479;28;20408;-80
2021/03/11 04:21:18;;;;;;;17.88;7.45;;;5.90;99.90;;;;;;5082844;28;20380;-80
2021/03/11 04:23:45;;;;;;;16.50;7.10;;;6.00;99.90;;;;;;5082975;28;20031;-80
2021/03/11 04:26:11;;;;;;;21.60;8.80;;;6.00;99.90;;;;;;5084574;28;20028;-79
2021/03/11 04:28:38;;;;;;;17.42;5.28;;;6.00;99.90;;;;;;5083273;28;20039;-78
2021/03/11 04:31:03;;;;;;;18.27;7.60;;;6.00;99.90;;;;;;5082906;28;20037;-82
2021/03/11 04:33:30;;;;;;;18.23;7.03;;;6.00;99.90;;;;;;5083003;28;20039;-82
2021/03/11 04:35:57;;;;;;;12.48;5.65;;;6.00;99.90;;;;;;5082879;28;20028;-79
2021/03/11 04:38:24;;;;;;;7.78;4.32;;;6.10;99.90;;;;;;5084405;28;20025;-78
2021/03/11 04:40:50;;;;;;;21.52;7.72;;;6.00;99.90;;;;;;5084366;28;20028;-75
2021/03/11 04:43:15;;;;;;;10.30;5.68;;;6.00;99.90;;;;;;5082707;28;20048;-75
2021/03/11 04:45:45;;;;;;;18.08;6.65;;;6.10;99.90;;;;;;5084466;28;20058;-78
2021/03/11 04:48:11;;;;;;;12.60;6.25;;;6.10;99.90;;;;;;5082676;28;20052;-78
2021/03/11 04:50:42;;;;;;;17.58;7.18;;;6.10;99.90;;;;;;5083861;28;20041;-81
2021/03/11 04:53:08;;;;;;;17.52;7.28;;;6.10;99.90;;;;;;5082982;28;20024;-77
2021/03/11 04:55:35;;;;;;;11.55;6.50;;;6.10;99.90;;;;;;5084495;28;20029;-78
2021/03/11 04:58:01;;;;;;;14.13;6.93;;;6.10;99.90;;;;;;5086503;28;20042;-76
2021/03/11 05:00:28;;;;;;;11.25;5.63;;;6.10;99.90;;;;;;5087421;28;20032;-78
2021/03/11 05:02:58;;;;;;;14.43;6.60;;;6.30;99.90;;;;;;5085390;28;20043;-78
2021/03/11 05:05:36;;;;;;;17.30;6.25;;;6.20;99.90;;;;;;5086919;28;20029;-78
2021/03/11 05:08:03;;;;;;;14.25;6.88;;;6.20;99.90;;;;;;5087331;28;20107;-78
2021/03/11 05:10:29;;;;;;;16.65;5.15;;;6.20;99.90;;;;;;5085534;28;20090;-76
2021/03/11 05:12:55;;;;;;;12.32;4.95;;;6.20;99.90;;;;;;5087409;28;20035;-77
2021/03/11 05:15:21;;;;;;;8.40;4.20;;;6.20;99.90;;;;;;5086697;28;20029;-77
2021/03/11 05:17:47;;;;;;;8.95;5.47;;;6.20;99.90;;;;;;5086105;28;20319;-77
2021/03/11 05:20:14;;;;;;;9.18;3.60;;;6.20;99.90;;;;;;5087428;28;20085;-78
2021/03/11 05:22:40;;;;;;;12.23;5.65;;;6.20;99.90;;;;;;5078151;28;20112;-78
2021/03/11 05:25:08;;;;;;;14.23;5.90;;;6.20;99.90;;;;;;5087523;28;20036;-78
2021/03/11 05:27:36;;;;;;;10.27;4.78;;;6.30;99.90;;;;;;5086209;28;20032;-77
2021/03/11 05:30:03;;;;;;;12.88;6.55;;;6.30;99.90;;;;;;5087329;28;20047;-76
2021/03/11 05:32:29;;;;;;;10.63;6.10;;;6.30;99.90;;;;;;5087229;28;20031;-79
2021/03/11 05:34:54;;;;;;;10.50;4.47;;;6.30;99.90;;;;;;5086897;28;20040;-75
2021/03/11 05:37:20;;;;;;;15.40;5.75;;;6.30;99.90;;;;;;5080665;28;20478;-80
2021/03/11 05:39:47;;;;;;;10.98;5.50;;;6.30;99.90;;;;;;5064964;28;20032;-77
2021/03/11 05:42:13;;;;;;;13.45;6.03;;;6.30;99.90;;;;;;5065652;28;20024;-78
2021/03/11 05:44:39;;;;;;;11.20;4.60;;;6.30;99.90;;;;;;5067155;28;20071;-80
2021/03/11 05:47:07;;;;;;;12.52;5.25;;;6.30;99.90;;;;;;5066851;28;20025;-77
2021/03/11 05:49:34;;;;;;;10.68;4.28;;;6.30;99.90;;;;;;5065842;28;20405;-74
2021/03/11 05:52:01;;;;;;;7.70;4.60;;;6.30;99.90;;;;;;5065725;28;20017;-79
2021/03/11 05:54:28;;;;;;;14.70;6.55;;;6.40;99.90;;;;;;5065548;28;20033;-76
2021/03/11 05:56:55;;;;;;;8.65;3.85;;;6.40;99.90;;;;;;5065514;28;20029;-78
2021/03/11 05:59:21;;;;;;;7.43;4.38;;;6.40;99.90;;;;;;5066753;28;20029;-77
2021/03/11 06:01:47;;;;;;;11.90;6.28;;;6.40;99.90;;;;;;5066018;28;20029;-75
2021/03/11 06:04:15;;;;;;;5.65;3.53;;;6.40;99.90;;;;;;5066220;28;20025;-80
2021/03/11 06:06:42;;;;;;;7.30;3.38;;;6.40;99.90;;;;;;5064927;28;20025;-78
2021/03/11 06:09:08;;;;;;;12.02;5.47;;;6.40;99.90;;;;;;5066222;28;20048;-77
2021/03/11 06:11:37;;;;;;;13.30;5.72;;;6.40;99.90;;;;;;5066632;28;20033;-76
2021/03/11 06:14:06;;;;;;;12.35;5.15;;;6.50;99.90;;;;;;5066033;28;20029;-78
2021/03/11 06:16:34;;;;;;;11.25;4.30;;;6.40;99.90;;;;;;5065045;28;20499;-78
2021/03/11 06:19:00;;;;;;;15.93;5.30;;;6.50;99.90;;;;;;5065147;28;20064;-77
2021/03/11 06:21:26;;;;;;;6.30;3.35;;;6.50;99.90;;;;;;5066129;28;20025;-76
2021/03/11 06:23:51;;;;;;;8.85;4.10;;;6.50;99.90;;;;;;5065997;28;20060;-77
2021/03/11 06:26:17;;;;;;;9.90;5.40;;;6.60;99.90;;;;;;5064651;28;20029;-75
2021/03/11 06:28:45;;;;;;;8.25;4.80;;;6.60;99.90;;;;;;5066049;28;20025;-75
2021/03/11 06:31:26;;;;;;;8.23;3.83;;;6.60;99.90;;;;;;5064615;28;20028;-79
2021/03/11 06:33:54;;;;;;;14.55;6.28;;;6.60;99.90;;;;;;5064984;28;20040;-78
2021/03/11 06:36:22;;;;;;;12.38;5.22;;;6.60;99.90;;;;;;5066115;28;20029;-75
2021/03/11 06:38:48;;;;;;;12.10;5.25;;;6.70;99.90;;;;;;5066002;28;20025;-79
2021/03/11 06:41:14;;;;;;;7.57;3.67;;;6.70;99.90;;;;;;5065753;28;20021;-80
2021/03/11 06:43:58;;;;;;;15.60;4.18;;;6.70;99.90;;;;;;5065723;28;20025;-76
2021/03/11 06:46:26;;;;;;;12.50;5.20;;;6.70;99.90;;;;;;5065863;28;20033;-79
2021/03/11 06:49:12;;;;;;;10.00;3.45;;;6.70;99.90;;;;;;5064372;28;20063;-80
2021/03/11 06:51:39;;;;;;;10.20;4.65;;;6.80;99.90;;;;;;5064388;28;20040;-77
2021/03/11 06:54:08;;;;;;;12.75;4.78;;;6.80;99.90;;;;;;5067605;28;20020;-78
2021/03/11 06:56:34;;;;;;;12.18;5.85;;;6.80;99.90;;;;;;5064746;28;20029;-80
2021/03/11 06:59:01;;;;;;;12.68;5.95;;;6.90;99.90;;;;;;5064363;28;20033;-78
2021/03/11 07:01:30;;;;;;;11.52;5.97;;;6.90;99.90;;;;;;5064405;28;20029;-77
2021/03/11 07:03:58;;;;;;;10.10;4.38;;;6.90;99.90;;;;;;5068799;28;20535;-78
2021/03/11 07:06:26;;;;;;;10.10;4.97;;;6.90;99.90;;;;;;5080789;28;20028;-78
2021/03/11 07:08:53;;;;;;;10.73;4.05;;;6.90;99.90;;;;;;5083852;28;20098;-78
2021/03/11 07:11:19;;;;;;;11.07;4.93;;;6.90;99.90;;;;;;5084234;28;20031;-78
2021/03/11 07:13:45;;;;;;;10.18;4.57;;;7.00;99.90;;;;;;5084466;28;20058;-76
2021/03/11 07:16:20;;;;;;;7.93;3.92;;;7.00;99.90;;;;;;5080768;28;20029;-78
2021/03/11 07:18:46;;;;;;;;;;;7.00;99.90;;;;;;5065415;28;20032;-76
2021/03/11 07:21:13;;;;;;;9.15;4.32;;;7.00;99.90;;;;;;5064670;28;19904;-78
2021/03/11 07:23:47;;;;;;;10.50;3.38;;;7.00;99.90;;;;;;5063876;28;20063;-78
2021/03/11 07:26:12;;;;;;;13.60;5.68;;;7.10;99.90;;;;;;5065007;28;20059;-77
2021/03/11 07:28:38;;;;;;;12.45;5.32;;;7.10;99.90;;;;;;5064002;28;20056;-75
2021/03/11 07:31:05;;;;;;;8.98;5.07;;;7.10;99.90;;;;;;5064016;28;20104;-79
2021/03/11 07:33:32;;;;;;;8.55;4.93;;;7.10;99.90;;;;;;5064036;28;20036;-78
2021/03/11 07:36:00;;;;;;;15.93;6.90;;;7.20;99.90;;;;;;5064233;28;20388;-79
2021/03/11 07:38:29;;;;;;;13.32;6.15;;;7.20;99.90;;;;;;5063510;28;20057;-79
2021/03/11 07:40:57;;;;;;;11.00;5.60;;;7.20;99.90;;;;;;5064978;28;20025;-78
2021/03/11 07:43:25;;;;;;;7.45;3.05;;;7.30;99.90;;;;;;5063588;28;20383;-78
2021/03/11 07:45:55;;;;;;;10.55;4.88;;;7.30;99.90;;;;;;5074797;28;20025;-77
2021/03/11 07:48:21;;;;;;;10.48;6.50;;;7.30;99.90;;;;;;5077496;28;20423;-76
2021/03/11 07:50:46;;;;;;;12.27;6.25;;;7.30;99.90;;;;;;5082980;28;20041;-78
2021/03/11 07:53:12;;;;;;;12.43;5.95;;;7.40;99.90;;;;;;5064664;28;20033;-77
2021/03/11 07:55:38;;;;;;;11.20;6.25;;;7.50;99.90;;;;;;5080523;28;20032;-77
2021/03/11 07:58:11;;;;;;;18.85;7.28;;;7.40;99.90;;;;;;5080671;28;20045;-78
2021/03/11 08:00:37;;;;;;;12.68;5.13;;;7.50;99.90;;;;;;5064652;28;20029;-76
2021/03/11 08:03:08;;;;;;;14.68;6.57;;;7.50;99.90;;;;;;5079808;28;20187;-78
2021/03/11 08:05:36;;;;;;;13.10;6.55;;;7.50;99.90;;;;;;5063564;28;20068;-77
2021/03/11 08:08:21;;;;;;;11.50;4.78;;;7.50;99.90;;;;;;5079618;28;20052;-76
2021/03/11 08:10:54;;;;;;;13.32;6.82;;;7.60;99.90;;;;;;5063771;28;20049;-76
2021/03/11 08:13:38;;;;;;;10.93;4.85;;;7.60;99.90;;;;;;5064004;28;20052;-73
2021/03/11 08:16:10;;;;;;;24.60;6.82;;;7.70;99.90;;;;;;5079899;28;20032;-75
2021/03/11 08:18:35;;;;;;;12.85;5.20;;;7.60;99.90;;;;;;5079412;28;20032;-74
2021/03/11 08:21:21;;;;;;;14.55;6.47;;;7.70;99.90;;;;;;5064522;28;20055;-75
2021/03/11 08:23:47;;;;;;;15.02;6.95;;;7.80;99.90;;;;;;5064405;28;20053;-75
2021/03/11 08:26:42;;;;;;;13.68;6.80;;;7.90;99.90;;;;;;5064409;28;20036;-79
2021/03/11 08:29:21;;;;;;;17.77;8.05;;;7.90;99.90;;;;;;5065078;28;20036;-77
2021/03/11 08:31:47;;;;;;;15.73;7.30;;;8.00;99.90;;;;;;5084119;28;20021;-80
2021/03/11 08:34:35;;;;;;;14.52;7.15;;;8.10;99.90;;;;;;5073823;28;20013;-74
2021/03/11 08:37:20;;;;;;;13.68;6.85;;;8.20;99.90;;;;;;5071607;28;20039;-74
2021/03/11 08:39:47;;;;;;;22.85;7.60;;;8.30;99.90;;;;;;5067388;28;20067;-73
2021/03/11 08:42:41;;;;;;;15.38;8.27;;;8.40;99.90;;;;;;5071983;28;20013;-74
2021/03/11 08:45:08;;;;;;;17.60;7.25;;;8.40;99.90;;;;;;5088044;28;20020;-76
2021/03/11 08:47:57;;;;;;;19.83;7.13;;;8.50;99.90;;;;;;5070940;28;20033;-73
2021/03/11 08:50:35;;;;;;;11.52;6.15;;;8.50;99.90;;;;;;5065941;28;20056;-75
2021/03/11 08:53:01;;;;;;;20.50;6.43;;;8.60;99.90;;;;;;5069416;28;20033;-73
2021/03/11 08:55:33;;;;;;;20.13;7.30;;;8.70;99.90;;;;;;5088265;28;20499;-75
2021/03/11 08:58:00;;;;;;;9.70;5.28;;;8.80;99.90;;;;;;5087088;28;20047;-79
2021/03/11 09:01:04;;;;;;;10.52;5.50;;;8.90;99.90;;;;;;5074670;28;20040;-74
2021/03/11 09:03:36;;;;;;;10.50;4.65;;;9.10;99.90;;;;;;5067985;28;20029;-79
2021/03/11 09:06:03;;;;;;;10.30;4.35;;;9.20;99.90;;;;;;5068001;28;20033;-76
2021/03/11 09:08:29;;;;;;;7.97;4.25;;;9.30;99.90;;;;;;5066741;28;20123;-76
2021/03/11 09:11:16;;;;;;;8.07;3.63;;;9.40;99.90;;;;;;5066844;28;20064;-75
2021/03/11 09:13:42;;;;;;;9.40;4.30;;;9.50;99.90;;;;;;5086069;28;20032;-76
2021/03/11 09:16:09;;;;;;;12.68;4.47;;;9.70;99.90;;;;;;5086444;28;20045;-74
2021/03/11 09:18:35;;;;;;;6.72;3.38;;;9.80;99.90;;;;;;5086818;28;20025;-77
2021/03/11 09:21:07;;;;;;;3.58;2.63;;;10.00;99.90;;;;;;5087992;28;20035;-80
2021/03/11 09:23:39;;;;;;;4.18;2.28;;;10.20;99.90;;;;;;5086698;28;20036;-78
2021/03/11 09:26:07;;;;;;;6.70;2.90;;;10.20;99.90;;;;;;5076767;28;20025;-77
2021/03/11 09:28:33;;;;;;;3.80;1.98;;;10.30;99.90;;;;;;5082471;28;20025;-75
2021/03/11 09:31:00;;;;;;;6.57;3.08;;;10.50;99.90;;;;;;5084252;28;20409;-76
2021/03/11 09:33:26;;;;;;;10.60;2.42;;;10.50;99.90;;;;;;5083363;28;20500;-76
2021/03/11 09:35:52;;;;;;;3.42;2.10;;;10.60;99.90;;;;;;5086880;28;20092;-75
2021/03/11 09:38:25;;;;;;;2.95;2.08;;;10.80;99.90;;;;;;5072642;28;20025;-79
2021/03/11 09:41:01;;;;;;;5.73;2.73;;;10.80;99.90;;;;;;5083432;28;20033;-76
2021/03/11 09:43:37;;;;;;;3.78;1.58;;;10.70;99.90;;;;;;5066622;28;20024;-76
2021/03/11 09:46:15;;;;;;;8.05;2.17;;;10.60;99.90;;;;;;5082849;28;20029;-75
2021/03/11 09:48:46;;;;;;;15.75;4.13;;;10.40;99.90;;;;;;5067177;28;20025;-75
2021/03/11 09:51:18;;;;;;;3.95;2.03;;;10.30;99.90;;;;;;5082827;28;20064;-75
2021/03/11 09:53:46;;;;;;;6.03;2.03;;;10.20;99.90;;;;;;5081030;28;20111;-73
2021/03/11 09:56:29;;;;;;;8.88;2.30;;;10.30;99.90;;;;;;5085528;28;20036;-74
2021/03/11 09:58:57;;;;;;;3.75;1.55;;;10.30;99.90;;;;;;5071524;28;20425;-73
2021/03/11 10:01:39;;;;;;;7.80;1.52;;;10.40;99.90;;;;;;5086828;28;20028;-77
2021/03/11 10:04:18;;;;;;;3.88;1.73;;;10.40;99.90;;;;;;5082268;28;20033;-76
2021/03/11 10:07:08;;;;;;;6.13;1.35;;;10.40;99.90;;;;;;5082003;28;20029;-75
2021/03/11 10:09:40;;;;;;;1.42;1.08;;;10.70;99.90;;;;;;5065447;28;20064;-76
2021/03/11 10:12:06;;;;;;;7.68;1.38;;;10.90;99.90;;;;;;5067209;28;20025;-77
2021/03/11 10:14:32;;;;;;;1.92;1.35;;;10.90;99.90;;;;;;5079353;28;20036;-78
2021/03/11 10:17:02;;;;;;;4.22;1.25;;;10.70;99.90;;;;;;5067108;28;20397;-77
2021/03/11 10:19:28;;;;;;;2.17;0.77;;;10.50;99.90;;;;;;5071314;28;20024;-76
2021/03/11 10:21:55;;;;;;;2.30;1.25;;;10.30;99.90;;;;;;5085739;28;20054;-78
2021/03/11 10:24:41;;;;;;;4.35;1.45;;;10.20;99.90;;;;;;5085153;28;20024;-79
2021/03/11 10:27:25;;;;;;;3.30;1.05;;;10.10;99.90;;;;;;5076131;28;20025;-75
2021/03/11 10:30:06;;;;;;;1.08;0.68;;;10.00;99.90;;;;;;5065529;28;20051;-75
2021/03/11 10:32:32;;;;;;;1.83;0.95;;;10.10;99.90;;;;;;5066676;28;20025;-77
2021/03/11 10:34:58;;;;;;;3.47;1.40;;;10.20;99.90;;;;;;5066140;28;20052;-76
2021/03/11 10:37:29;;;;;;;7.05;1.80;;;10.40;99.90;;;;;;5069043;28;20025;-79
2021/03/11 10:39:58;;;;;;;2.75;1.55;;;10.50;99.90;;;;;;5078292;28;20039;-77
2021/03/11 10:42:26;;;;;;;11.20;1.45;;;10.40;99.90;;;;;;5085741;28;20101;-76
2021/03/11 10:44:58;;;;;;;8.98;1.52;;;10.30;99.90;;;;;;5084577;28;20038;-74
2021/03/11 10:47:23;;;;;;;3.30;1.70;;;10.20;99.90;;;;;;5077807;28;20029;-75
2021/03/11 10:49:49;;;;;;;2.45;1.40;;;10.00;99.90;;;;;;5065404;28;20112;-79
2021/03/11 10:52:17;;;;;;;1.67;1.10;;;9.90;99.90;;;;;;5080645;28;20033;-77
2021/03/11 10:54:43;;;;;;;2.58;1.35;;;9.80;99.90;;;;;;5068784;28;20021;-76
2021/03/11 10:57:12;;;;;;;2.47;0.98;;;9.60;99.90;;;;;;5063698;28;20032;-77
2021/03/11 10:59:58;;;;;;;12.65;1.95;;;9.60;99.90;;;;;;5061763;28;20025;-77
2021/03/11 11:02:29;;;;;;;2.10;1.60;;;9.90;99.90;;;;;;5062566;28;20040;-73
2021/03/11 11:04:58;;;;;;;3.10;1.20;;;10.30;99.90;;;;;;5064729;28;20127;-77
2021/03/11 11:07:25;;;;;;;3.15;1.08;;;10.70;99.90;;;;;;5076886;28;20103;-79
2021/03/11 11:09:51;;;;;;;2.47;1.23;;;10.90;99.90;;;;;;5084469;28;20055;-78
2021/03/11 11:12:18;;;;;;;7.22;1.52;;;10.80;99.90;;;;;;5082890;28;20114;-79
2021/03/11 11:14:45;;;;;;;6.15;1.60;;;11.10;99.90;;;;;;5082857;28;20028;-76
2021/03/11 11:17:14;;;;;;;4.10;1.70;;;11.20;99.90;;;;;;5084351;28;20039;-76
2021/03/11 11:19:41;;;;;;;1.52;1.17;;;11.30;99.90;;;;;;5084517;28;20047;-73
2021/03/11 11:22:09;;;;;;;3.70;0.90;;;11.30;99.90;;;;;;5084456;28;20021;-75
2021/03/11 11:24:40;;;;;;;5.80;1.40;;;11.30;99.90;;;;;;5084359;28;20067;-79
2021/03/11 11:27:10;;;;;;;2.78;1.02;;;11.50;99.90;;;;;;5083313;28;20021;-75
2021/03/11 11:29:39;;;;;;;5.03;1.00;;;11.50;99.90;;;;;;5082327;28;20345;-78
2021/03/11 11:32:06;;;;;;;2.05;1.33;;;11.50;99.90;;;;;;5079698;28;20108;-76
2021/03/11 11:34:32;;;;;;;7.53;1.35;;;11.70;99.90;;;;;;5064186;28;20029;-73
2021/03/11 11:36:57;;;;;;;10.00;1.15;;;11.80;99.90;;;;;;5064068;28;20108;-74
2021/03/11 11:39:23;;;;;;;2.03;1.23;;;11.90;99.90;;;;;;5064534;28;20083;-76
2021/03/11 11:41:50;;;;;;;1.55;0.73;;;11.90;99.90;;;;;;5064180;28;20036;-75
2021/03/11 11:44:17;;;;;;;9.63;1.55;;;11.80;99.90;;;;;;5063785;28;20037;-74
2021/03/11 11:46:44;;;;;;;3.35;1.25;;;11.70;99.90;;;;;;5064180;28;20052;-78
2021/03/11 11:49:11;;;;;;;4.35;1.38;;;11.60;99.90;;;;;;5079200;28;20040;-76
2021/03/11 11:51:38;;;;;;;2.10;0.75;;;11.40;99.90;;;;;;5063941;28;20035;-76
2021/03/11 11:54:05;;;;;;;6.90;1.88;;;11.30;99.90;;;;;;5080126;28;20033;-74
2021/03/11 11:56:31;;;;;;;7.93;1.55;;;11.20;99.90;;;;;;5064669;28;20070;-76
2021/03/11 11:58:57;;;;;;;9.30;1.73;;;11.10;99.90;;;;;;5070295;28;20556;-75
2021/03/11 12:01:23;;;;;;;7.25;1.88;;;10.90;99.90;;;;;;5084706;28;20025;-77
2021/03/11 12:03:49;;;;;;;3.03;1.17;;;10.70;99.90;;;;;;5084702;28;20028;-78
2021/03/11 12:06:15;;;;;;;2.72;1.40;;;10.50;99.90;;;;;;5082377;28;20021;-79
2021/03/11 12:08:42;;;;;;;14.88;3.10;;;10.40;99.90;;;;;;5084395;28;20078;-76
2021/03/11 12:11:07;;;;;;;8.23;2.25;;;10.20;99.90;;;;;;5083189;28;20040;-76
2021/03/11 12:13:34;;;;;;;6.07;1.30;;;10.10;99.90;;;;;;5084776;28;20036;-75
2021/03/11 12:16:01;;;;;;;16.92;2.13;;;10.00;99.90;;;;;;5084634;28;20067;-75
2021/03/11 12:18:26;;;;;;;1.45;0.93;;;9.90;99.90;;;;;;5083061;28;20498;-76
2021/03/11 12:20:52;;;;;;;3.10;0.95;;;10.00;99.90;;;;;;5082578;28;20488;-76
2021/03/11 12:23:18;;;;;;;6.55;1.40;;;9.80;99.90;;;;;;5082777;28;20024;-75
2021/03/11 12:25:44;;;;;;;3.42;1.05;;;9.80;99.90;;;;;;5083255;28;20031;-78
2021/03/11 12:28:10;;;;;;;8.07;2.03;;;9.80;99.90;;;;;;5084365;28;20035;-76
2021/03/11 12:30:37;;;;;;;5.95;1.17;;;9.80;99.90;;;;;;5083132;28;20051;-78
2021/03/11 12:33:03;;;;;;;2.25;1.10;;;9.60;99.90;;;;;;5083213;28;20818;-77
2021/03/11 12:35:28;;;;;;;13.05;1.50;;;9.50;99.90;;;;;;5083655;28;20088;-77
2021/03/11 12:37:55;;;;;;;3.88;1.20;;;9.30;99.90;;;;;;5082301;28;20096;-76
2021/03/11 12:40:21;;;;;;;4.05;1.63;;;9.30;99.90;;;;;;5082504;28;20029;-77
2021/03/11 12:42:48;;;;;;;8.48;0.98;;;9.20;99.90;;;;;;5082463;28;20025;-76
2021/03/11 12:45:18;;;;;;;9.15;1.67;;;9.10;99.90;;;;;;5082569;28;20020;-77
2021/03/11 12:47:44;;;;;;;0.63;0.40;;;9.10;99.90;;;;;;5083612;28;20028;-75
2021/03/11 12:50:14;;;;;;;7.07;1.52;;;9.10;99.90;;;;;;5082891;28;20051;-78
2021/03/11 12:52:41;;;;;;;6.28;1.42;;;9.00;99.90;;;;;;5082921;28;20123;-77
2021/03/11 12:55:08;;;;;;;10.77;1.73;;;8.90;99.90;;;;;;5083486;28;20035;-78
2021/03/11 12:57:35;;;;;;;7.25;2.13;;;8.90;99.90;;;;;;5084656;28;20028;-78
2021/03/11 13:00:06;;;;;;;4.40;1.13;;;8.90;99.90;;;;;;5084491;28;20074;-78